Terminal Aerodrome Forecast
Issued by NWS

Home | Current Version | Previous Version | Graphics & Text | Print | Product List | Glossary On
Versions: 1 2 3 4 5 6 7 8 9 10 11 12 13 14 15 16 17 18 19 20 21 22 23 24 25 26 27 28 29 30 31 32 33 34 35 36 37 38 39 40
000
FTUS43 KGRB 261700 RRA
TAFRHI
TAF
KRHI 261741Z 2618/2718 VRB03KT 4SM -SN BR SCT020 BKN035
      TEMPO 2618/2621 1 1/2SM -SHSN BKN020
     FM262100 VRB03KT 3SM -SN BR SCT012 OVC020
      TEMPO 2621/2624 1 1/2SM -SHSN BKN012
     FM270200 32006KT 6SM -SN BR SCT010 OVC020
     FM271200 32011KT 6SM -SHSN BKN017 BKN030=

USA.gov is the U.S. government's official web portal to all federal, state and local government web resources and services.